sensor_id;sensor_type;location;lat;lon;timestamp;P1;durP1;ratioP1;P2;durP2;ratioP2
8279;SDS011;8335;42.646;23.380;2022-09-09T00:00:46;11.98;;;9.15;;
8279;SDS011;8335;42.646;23.380;2022-09-09T00:03:16;11.85;;;9.27;;
8279;SDS011;8335;42.646;23.380;2022-09-09T00:05:48;10.32;;;9.32;;
8279;SDS011;8335;42.646;23.380;2022-09-09T00:08:24;10.57;;;8.98;;
8279;SDS011;8335;42.646;23.380;2022-09-09T00:11:02;12.85;;;10.00;;
8279;SDS011;8335;42.646;23.380;2022-09-09T00:13:32;11.70;;;9.38;;
8279;SDS011;8335;42.646;23.380;2022-09-09T00:16:03;10.73;;;8.90;;
8279;SDS011;8335;42.646;23.380;2022-09-09T00:18:39;10.90;;;9.73;;
8279;SDS011;8335;42.646;23.380;2022-09-09T00:21:11;12.15;;;8.88;;
8279;SDS011;8335;42.646;23.380;2022-09-09T00:23:43;11.00;;;9.90;;
8279;SDS011;8335;42.646;23.380;2022-09-09T00:26:16;10.57;;;9.20;;
8279;SDS011;8335;42.646;23.380;2022-09-09T00:28:53;11.10;;;8.63;;
8279;SDS011;8335;42.646;23.380;2022-09-09T00:31:28;17.60;;;9.38;;
8279;SDS011;8335;42.646;23.380;2022-09-09T00:33:57;12.80;;;9.18;;
8279;SDS011;8335;42.646;23.380;2022-09-09T00:36:36;11.88;;;8.57;;
8279;SDS011;8335;42.646;23.380;2022-09-09T00:39:05;11.13;;;8.63;;
8279;SDS011;8335;42.646;23.380;2022-09-09T00:41:42;9.88;;;8.70;;
8279;SDS011;8335;42.646;23.380;2022-09-09T00:44:25;10.15;;;8.52;;
8279;SDS011;8335;42.646;23.380;2022-09-09T00:47:04;10.48;;;8.35;;
8279;SDS011;8335;42.646;23.380;2022-09-09T00:49:47;10.23;;;8.93;;
8279;SDS011;8335;42.646;23.380;2022-09-09T00:52:23;10.57;;;8.38;;
8279;SDS011;8335;42.646;23.380;2022-09-09T00:55:05;10.75;;;9.43;;
8279;SDS011;8335;42.646;23.380;2022-09-09T00:57:38;10.57;;;8.95;;
8279;SDS011;8335;42.646;23.380;2022-09-09T01:00:16;10.82;;;9.10;;
8279;SDS011;8335;42.646;23.380;2022-09-09T01:05:51;15.50;;;10.25;;
8279;SDS011;8335;42.646;23.380;2022-09-09T01:08:40;10.43;;;9.32;;
8279;SDS011;8335;42.646;23.380;2022-09-09T01:11:19;9.70;;;8.48;;
8279;SDS011;8335;42.646;23.380;2022-09-09T01:13:49;9.82;;;8.60;;
8279;SDS011;8335;42.646;23.380;2022-09-09T01:16:25;10.70;;;8.70;;
8279;SDS011;8335;42.646;23.380;2022-09-09T01:18:55;15.18;;;8.65;;
8279;SDS011;8335;42.646;23.380;2022-09-09T01:21:26;11.23;;;8.63;;
8279;SDS011;8335;42.646;23.380;2022-09-09T01:24:13;10.88;;;9.07;;
8279;SDS011;8335;42.646;23.380;2022-09-09T01:26:48;11.80;;;9.00;;
8279;SDS011;8335;42.646;23.380;2022-09-09T01:29:18;12.02;;;9.32;;
8279;SDS011;8335;42.646;23.380;2022-09-09T01:31:52;9.27;;;8.30;;
8279;SDS011;8335;42.646;23.380;2022-09-09T01:34:22;9.40;;;8.40;;
8279;SDS011;8335;42.646;23.380;2022-09-09T01:36:51;12.30;;;9.30;;
8279;SDS011;8335;42.646;23.380;2022-09-09T01:39:24;10.13;;;8.85;;
8279;SDS011;8335;42.646;23.380;2022-09-09T01:41:53;10.20;;;8.98;;
8279;SDS011;8335;42.646;23.380;2022-09-09T01:44:21;11.55;;;9.15;;
8279;SDS011;8335;42.646;23.380;2022-09-09T01:46:49;12.68;;;9.70;;
8279;SDS011;8335;42.646;23.380;2022-09-09T01:49:16;13.15;;;9.80;;
8279;SDS011;8335;42.646;23.380;2022-09-09T01:51:43;11.00;;;8.88;;
8279;SDS011;8335;42.646;23.380;2022-09-09T01:54:15;9.75;;;8.38;;
8279;SDS011;8335;42.646;23.380;2022-09-09T01:56:44;17.17;;;8.60;;
8279;SDS011;8335;42.646;23.380;2022-09-09T01:59:26;10.40;;;8.57;;
8279;SDS011;8335;42.646;23.380;2022-09-09T02:02:09;13.52;;;8.77;;
8279;SDS011;8335;42.646;23.380;2022-09-09T02:04:38;10.77;;;8.30;;
8279;SDS011;8335;42.646;23.380;2022-09-09T02:07:09;9.60;;;8.60;;
8279;SDS011;8335;42.646;23.380;2022-09-09T02:09:43;9.75;;;8.35;;
8279;SDS011;8335;42.646;23.380;2022-09-09T02:12:16;14.18;;;9.20;;
8279;SDS011;8335;42.646;23.380;2022-09-09T02:14:50;10.20;;;9.15;;
8279;SDS011;8335;42.646;23.380;2022-09-09T02:17:22;9.93;;;8.85;;
8279;SDS011;8335;42.646;23.380;2022-09-09T02:19:54;10.38;;;9.10;;
8279;SDS011;8335;42.646;23.380;2022-09-09T02:22:26;12.07;;;8.65;;
8279;SDS011;8335;42.646;23.380;2022-09-09T02:24:55;14.88;;;9.05;;
8279;SDS011;8335;42.646;23.380;2022-09-09T02:27:24;11.13;;;8.65;;
8279;SDS011;8335;42.646;23.380;2022-09-09T02:29:53;11.63;;;8.88;;
8279;SDS011;8335;42.646;23.380;2022-09-09T02:32:23;10.07;;;9.07;;
8279;SDS011;8335;42.646;23.380;2022-09-09T02:34:52;10.00;;;8.23;;
8279;SDS011;8335;42.646;23.380;2022-09-09T02:37:25;11.13;;;9.35;;
8279;SDS011;8335;42.646;23.380;2022-09-09T02:39:58;14.68;;;9.43;;
8279;SDS011;8335;42.646;23.380;2022-09-09T02:42:25;12.98;;;9.20;;
8279;SDS011;8335;42.646;23.380;2022-09-09T02:44:53;9.98;;;9.05;;
8279;SDS011;8335;42.646;23.380;2022-09-09T02:47:24;12.63;;;9.50;;
8279;SDS011;8335;42.646;23.380;2022-09-09T02:50:01;13.32;;;9.20;;
8279;SDS011;8335;42.646;23.380;2022-09-09T02:52:37;11.40;;;9.98;;
8279;SDS011;8335;42.646;23.380;2022-09-09T02:55:12;11.65;;;9.25;;
8279;SDS011;8335;42.646;23.380;2022-09-09T02:57:46;10.00;;;8.73;;
8279;SDS011;8335;42.646;23.380;2022-09-09T03:00:15;11.10;;;9.63;;
8279;SDS011;8335;42.646;23.380;2022-09-09T03:02:49;12.95;;;10.00;;
8279;SDS011;8335;42.646;23.380;2022-09-09T03:05:16;12.23;;;9.18;;
8279;SDS011;8335;42.646;23.380;2022-09-09T03:07:43;11.27;;;9.98;;
8279;SDS011;8335;42.646;23.380;2022-09-09T03:10:10;12.70;;;9.82;;
8279;SDS011;8335;42.646;23.380;2022-09-09T03:12:36;11.60;;;9.93;;
8279;SDS011;8335;42.646;23.380;2022-09-09T03:15:04;13.77;;;10.15;;
8279;SDS011;8335;42.646;23.380;2022-09-09T03:17:32;13.15;;;10.02;;
8279;SDS011;8335;42.646;23.380;2022-09-09T03:20:00;13.07;;;10.77;;
8279;SDS011;8335;42.646;23.380;2022-09-09T03:22:27;12.45;;;11.13;;
8279;SDS011;8335;42.646;23.380;2022-09-09T03:24:54;15.68;;;11.50;;
8279;SDS011;8335;42.646;23.380;2022-09-09T03:27:21;15.13;;;11.85;;
8279;SDS011;8335;42.646;23.380;2022-09-09T03:29:48;18.73;;;11.60;;
8279;SDS011;8335;42.646;23.380;2022-09-09T03:32:16;14.50;;;11.50;;
8279;SDS011;8335;42.646;23.380;2022-09-09T03:34:44;15.82;;;12.23;;
8279;SDS011;8335;42.646;23.380;2022-09-09T03:37:14;15.02;;;12.27;;
8279;SDS011;8335;42.646;23.380;2022-09-09T03:39:42;15.43;;;12.38;;
8279;SDS011;8335;42.646;23.380;2022-09-09T03:42:08;16.00;;;12.43;;
8279;SDS011;8335;42.646;23.380;2022-09-09T03:44:35;15.47;;;12.50;;
8279;SDS011;8335;42.646;23.380;2022-09-09T03:47:02;15.25;;;12.77;;
8279;SDS011;8335;42.646;23.380;2022-09-09T03:49:30;16.30;;;12.87;;
8279;SDS011;8335;42.646;23.380;2022-09-09T03:51:58;17.13;;;13.37;;
8279;SDS011;8335;42.646;23.380;2022-09-09T03:54:26;15.77;;;13.05;;
8279;SDS011;8335;42.646;23.380;2022-09-09T03:56:53;16.02;;;13.38;;
8279;SDS011;8335;42.646;23.380;2022-09-09T03:59:19;18.60;;;12.20;;
8279;SDS011;8335;42.646;23.380;2022-09-09T04:01:48;16.50;;;13.50;;
8279;SDS011;8335;42.646;23.380;2022-09-09T04:04:14;16.53;;;13.53;;
8279;SDS011;8335;42.646;23.380;2022-09-09T04:06:41;16.33;;;12.38;;
8279;SDS011;8335;42.646;23.380;2022-09-09T04:09:09;18.35;;;12.73;;
8279;SDS011;8335;42.646;23.380;2022-09-09T04:11:36;20.08;;;13.85;;
8279;SDS011;8335;42.646;23.380;2022-09-09T04:14:03;21.35;;;12.63;;
8279;SDS011;8335;42.646;23.380;2022-09-09T04:16:31;16.93;;;12.80;;
8279;SDS011;8335;42.646;23.380;2022-09-09T04:18:58;20.38;;;13.23;;
8279;SDS011;8335;42.646;23.380;2022-09-09T04:21:25;15.67;;;12.53;;
8279;SDS011;8335;42.646;23.380;2022-09-09T04:23:51;15.52;;;13.45;;
8279;SDS011;8335;42.646;23.380;2022-09-09T04:26:20;20.52;;;12.82;;
8279;SDS011;8335;42.646;23.380;2022-09-09T04:28:46;18.98;;;12.68;;
8279;SDS011;8335;42.646;23.380;2022-09-09T04:31:14;27.42;;;13.02;;
8279;SDS011;8335;42.646;23.380;2022-09-09T04:33:43;20.27;;;11.20;;
8279;SDS011;8335;42.646;23.380;2022-09-09T04:36:11;19.83;;;12.70;;
8279;SDS011;8335;42.646;23.380;2022-09-09T04:38:38;19.33;;;11.43;;
8279;SDS011;8335;42.646;23.380;2022-09-09T04:41:05;15.10;;;11.20;;
8279;SDS011;8335;42.646;23.380;2022-09-09T04:43:34;16.95;;;10.80;;
8279;SDS011;8335;42.646;23.380;2022-09-09T04:46:00;15.05;;;10.80;;
8279;SDS011;8335;42.646;23.380;2022-09-09T04:48:27;17.00;;;10.25;;
8279;SDS011;8335;42.646;23.380;2022-09-09T04:50:55;16.38;;;8.90;;
8279;SDS011;8335;42.646;23.380;2022-09-09T04:53:22;17.35;;;8.80;;
8279;SDS011;8335;42.646;23.380;2022-09-09T04:55:50;11.05;;;8.68;;
8279;SDS011;8335;42.646;23.380;2022-09-09T04:58:17;13.50;;;8.48;;
8279;SDS011;8335;42.646;23.380;2022-09-09T05:00:48;12.15;;;7.68;;
8279;SDS011;8335;42.646;23.380;2022-09-09T05:03:16;10.70;;;7.97;;
8279;SDS011;8335;42.646;23.380;2022-09-09T05:05:42;11.40;;;7.95;;
8279;SDS011;8335;42.646;23.380;2022-09-09T05:08:10;11.48;;;8.45;;
8279;SDS011;8335;42.646;23.380;2022-09-09T05:10:38;14.23;;;7.88;;
8279;SDS011;8335;42.646;23.380;2022-09-09T05:13:07;9.07;;;7.18;;
8279;SDS011;8335;42.646;23.380;2022-09-09T05:15:34;10.80;;;7.80;;
8279;SDS011;8335;42.646;23.380;2022-09-09T05:18:02;11.02;;;7.75;;
8279;SDS011;8335;42.646;23.380;2022-09-09T05:20:29;10.27;;;7.80;;
8279;SDS011;8335;42.646;23.380;2022-09-09T05:22:57;12.55;;;8.27;;
8279;SDS011;8335;42.646;23.380;2022-09-09T05:25:23;10.73;;;7.60;;
8279;SDS011;8335;42.646;23.380;2022-09-09T05:27:51;17.52;;;7.68;;
8279;SDS011;8335;42.646;23.380;2022-09-09T05:30:19;13.02;;;7.55;;
8279;SDS011;8335;42.646;23.380;2022-09-09T05:32:47;9.38;;;7.80;;
8279;SDS011;8335;42.646;23.380;2022-09-09T05:35:15;9.23;;;7.40;;
8279;SDS011;8335;42.646;23.380;2022-09-09T05:37:44;9.15;;;7.78;;
8279;SDS011;8335;42.646;23.380;2022-09-09T05:40:11;13.10;;;7.35;;
8279;SDS011;8335;42.646;23.380;2022-09-09T05:42:37;9.98;;;7.47;;
8279;SDS011;8335;42.646;23.380;2022-09-09T05:45:05;10.07;;;7.07;;
8279;SDS011;8335;42.646;23.380;2022-09-09T05:47:32;11.55;;;7.20;;
8279;SDS011;8335;42.646;23.380;2022-09-09T05:49:59;11.65;;;7.82;;
8279;SDS011;8335;42.646;23.380;2022-09-09T05:52:27;8.18;;;6.75;;
8279;SDS011;8335;42.646;23.380;2022-09-09T05:54:54;7.95;;;6.95;;
8279;SDS011;8335;42.646;23.380;2022-09-09T05:57:22;13.57;;;7.13;;
8279;SDS011;8335;42.646;23.380;2022-09-09T05:59:49;8.45;;;6.72;;
8279;SDS011;8335;42.646;23.380;2022-09-09T06:02:16;13.75;;;6.72;;
8279;SDS011;8335;42.646;23.380;2022-09-09T06:04:42;9.40;;;6.13;;
8279;SDS011;8335;42.646;23.380;2022-09-09T06:07:09;9.45;;;6.28;;
8279;SDS011;8335;42.646;23.380;2022-09-09T06:09:37;8.77;;;5.78;;
8279;SDS011;8335;42.646;23.380;2022-09-09T06:12:04;11.30;;;6.28;;
8279;SDS011;8335;42.646;23.380;2022-09-09T06:14:31;8.50;;;5.82;;
8279;SDS011;8335;42.646;23.380;2022-09-09T06:16:58;7.65;;;5.25;;
8279;SDS011;8335;42.646;23.380;2022-09-09T06:19:25;7.50;;;5.10;;
8279;SDS011;8335;42.646;23.380;2022-09-09T06:21:52;9.02;;;5.35;;
8279;SDS011;8335;42.646;23.380;2022-09-09T06:24:18;7.10;;;4.80;;
8279;SDS011;8335;42.646;23.380;2022-09-09T06:26:47;7.45;;;5.55;;
8279;SDS011;8335;42.646;23.380;2022-09-09T06:29:14;9.10;;;5.38;;
8279;SDS011;8335;42.646;23.380;2022-09-09T06:31:41;7.28;;;5.40;;
8279;SDS011;8335;42.646;23.380;2022-09-09T06:34:08;7.35;;;4.90;;
8279;SDS011;8335;42.646;23.380;2022-09-09T06:36:36;9.45;;;5.38;;
8279;SDS011;8335;42.646;23.380;2022-09-09T06:39:04;9.48;;;4.82;;
8279;SDS011;8335;42.646;23.380;2022-09-09T06:41:32;10.75;;;6.00;;
8279;SDS011;8335;42.646;23.380;2022-09-09T06:44:01;8.27;;;6.05;;
8279;SDS011;8335;42.646;23.380;2022-09-09T06:46:29;14.13;;;6.10;;
8279;SDS011;8335;42.646;23.380;2022-09-09T06:48:58;12.60;;;6.07;;
8279;SDS011;8335;42.646;23.380;2022-09-09T06:51:26;10.32;;;6.30;;
8279;SDS011;8335;42.646;23.380;2022-09-09T06:53:54;9.63;;;6.45;;
8279;SDS011;8335;42.646;23.380;2022-09-09T06:56:23;11.18;;;9.70;;
8279;SDS011;8335;42.646;23.380;2022-09-09T06:58:52;9.48;;;6.75;;
8279;SDS011;8335;42.646;23.380;2022-09-09T07:01:22;9.05;;;5.68;;
8279;SDS011;8335;42.646;23.380;2022-09-09T07:03:51;10.90;;;5.63;;
8279;SDS011;8335;42.646;23.380;2022-09-09T07:06:20;10.18;;;5.22;;
8279;SDS011;8335;42.646;23.380;2022-09-09T07:08:49;8.98;;;5.60;;
8279;SDS011;8335;42.646;23.380;2022-09-09T07:11:17;10.00;;;5.25;;
8279;SDS011;8335;42.646;23.380;2022-09-09T07:13:45;8.80;;;5.18;;
8279;SDS011;8335;42.646;23.380;2022-09-09T07:16:13;10.90;;;5.50;;
8279;SDS011;8335;42.646;23.380;2022-09-09T07:18:42;10.65;;;5.00;;
8279;SDS011;8335;42.646;23.380;2022-09-09T07:21:10;12.38;;;5.18;;
8279;SDS011;8335;42.646;23.380;2022-09-09T07:23:38;7.93;;;4.38;;
8279;SDS011;8335;42.646;23.380;2022-09-09T07:26:07;13.07;;;4.68;;
8279;SDS011;8335;42.646;23.380;2022-09-09T07:28:35;8.60;;;5.05;;
8279;SDS011;8335;42.646;23.380;2022-09-09T07:31:03;10.20;;;4.88;;
8279;SDS011;8335;42.646;23.380;2022-09-09T07:33:30;8.55;;;4.63;;
8279;SDS011;8335;42.646;23.380;2022-09-09T07:36:03;11.90;;;4.60;;
8279;SDS011;8335;42.646;23.380;2022-09-09T07:38:37;8.07;;;4.47;;
8279;SDS011;8335;42.646;23.380;2022-09-09T07:41:06;6.88;;;4.85;;
8279;SDS011;8335;42.646;23.380;2022-09-09T07:43:36;10.90;;;4.32;;
8279;SDS011;8335;42.646;23.380;2022-09-09T07:46:03;8.23;;;4.95;;
8279;SDS011;8335;42.646;23.380;2022-09-09T07:48:31;7.43;;;4.72;;
8279;SDS011;8335;42.646;23.380;2022-09-09T07:51:09;12.98;;;5.28;;
8279;SDS011;8335;42.646;23.380;2022-09-09T07:53:42;9.57;;;4.93;;
8279;SDS011;8335;42.646;23.380;2022-09-09T07:56:09;9.57;;;5.60;;
8279;SDS011;8335;42.646;23.380;2022-09-09T07:58:38;13.10;;;5.35;;
8279;SDS011;8335;42.646;23.380;2022-09-09T08:01:06;14.27;;;4.97;;
8279;SDS011;8335;42.646;23.380;2022-09-09T08:03:34;9.82;;;4.90;;
8279;SDS011;8335;42.646;23.380;2022-09-09T08:06:02;8.15;;;4.43;;
8279;SDS011;8335;42.646;23.380;2022-09-09T08:08:30;11.00;;;4.50;;
8279;SDS011;8335;42.646;23.380;2022-09-09T08:11:04;9.32;;;4.70;;
8279;SDS011;8335;42.646;23.380;2022-09-09T08:13:32;6.78;;;4.80;;
8279;SDS011;8335;42.646;23.380;2022-09-09T08:16:03;8.00;;;5.30;;
8279;SDS011;8335;42.646;23.380;2022-09-09T08:18:35;11.80;;;8.05;;
8279;SDS011;8335;42.646;23.380;2022-09-09T08:21:09;15.30;;;5.25;;
8279;SDS011;8335;42.646;23.380;2022-09-09T08:23:39;12.88;;;6.13;;
8279;SDS011;8335;42.646;23.380;2022-09-09T08:26:09;9.85;;;5.43;;
8279;SDS011;8335;42.646;23.380;2022-09-09T08:28:37;9.05;;;4.82;;
8279;SDS011;8335;42.646;23.380;2022-09-09T08:31:05;8.90;;;5.22;;
8279;SDS011;8335;42.646;23.380;2022-09-09T08:33:33;9.02;;;4.70;;
8279;SDS011;8335;42.646;23.380;2022-09-09T08:36:01;7.28;;;4.88;;
8279;SDS011;8335;42.646;23.380;2022-09-09T08:38:28;9.43;;;5.07;;
8279;SDS011;8335;42.646;23.380;2022-09-09T08:40:59;8.43;;;4.63;;
8279;SDS011;8335;42.646;23.380;2022-09-09T08:43:44;9.65;;;4.90;;
8279;SDS011;8335;42.646;23.380;2022-09-09T08:46:14;12.25;;;5.50;;
8279;SDS011;8335;42.646;23.380;2022-09-09T08:48:48;7.18;;;4.95;;
8279;SDS011;8335;42.646;23.380;2022-09-09T08:51:21;11.05;;;5.18;;
8279;SDS011;8335;42.646;23.380;2022-09-09T08:53:53;7.45;;;4.75;;
8279;SDS011;8335;42.646;23.380;2022-09-09T08:56:26;9.65;;;5.25;;
8279;SDS011;8335;42.646;23.380;2022-09-09T08:58:58;13.43;;;7.15;;
8279;SDS011;8335;42.646;23.380;2022-09-09T09:01:39;12.63;;;8.50;;
8279;SDS011;8335;42.646;23.380;2022-09-09T09:04:17;8.70;;;5.53;;
8279;SDS011;8335;42.646;23.380;2022-09-09T09:06:59;9.70;;;5.32;;
8279;SDS011;8335;42.646;23.380;2022-09-09T09:09:34;9.80;;;5.50;;
8279;SDS011;8335;42.646;23.380;2022-09-09T09:12:14;6.15;;;5.28;;
8279;SDS011;8335;42.646;23.380;2022-09-09T09:14:44;6.40;;;5.13;;
8279;SDS011;8335;42.646;23.380;2022-09-09T09:17:14;13.73;;;5.45;;
8279;SDS011;8335;42.646;23.380;2022-09-09T09:19:42;14.00;;;5.45;;
8279;SDS011;8335;42.646;23.380;2022-09-09T09:22:14;8.55;;;5.65;;
8279;SDS011;8335;42.646;23.380;2022-09-09T09:24:46;11.27;;;5.72;;
8279;SDS011;8335;42.646;23.380;2022-09-09T09:27:21;10.68;;;5.50;;
8279;SDS011;8335;42.646;23.380;2022-09-09T09:29:56;9.80;;;7.18;;
8279;SDS011;8335;42.646;23.380;2022-09-09T09:32:25;13.68;;;6.65;;
8279;SDS011;8335;42.646;23.380;2022-09-09T09:34:57;10.23;;;5.95;;
8279;SDS011;8335;42.646;23.380;2022-09-09T09:37:26;9.98;;;5.78;;
8279;SDS011;8335;42.646;23.380;2022-09-09T09:39:56;9.73;;;5.25;;
8279;SDS011;8335;42.646;23.380;2022-09-09T09:42:35;8.90;;;5.30;;
8279;SDS011;8335;42.646;23.380;2022-09-09T09:45:14;9.07;;;5.07;;
8279;SDS011;8335;42.646;23.380;2022-09-09T09:47:44;7.68;;;5.35;;
8279;SDS011;8335;42.646;23.380;2022-09-09T09:50:19;11.38;;;5.53;;
8279;SDS011;8335;42.646;23.380;2022-09-09T09:52:53;14.60;;;5.18;;
8279;SDS011;8335;42.646;23.380;2022-09-09T09:55:22;10.13;;;5.57;;
8279;SDS011;8335;42.646;23.380;2022-09-09T09:57:51;10.07;;;6.22;;
8279;SDS011;8335;42.646;23.380;2022-09-09T10:00:20;12.77;;;5.72;;
8279;SDS011;8335;42.646;23.380;2022-09-09T10:02:48;13.55;;;5.55;;
8279;SDS011;8335;42.646;23.380;2022-09-09T10:05:18;11.00;;;5.10;;
8279;SDS011;8335;42.646;23.380;2022-09-09T10:08:00;10.20;;;5.80;;
8279;SDS011;8335;42.646;23.380;2022-09-09T10:10:34;11.48;;;5.28;;
8279;SDS011;8335;42.646;23.380;2022-09-09T10:13:13;13.18;;;5.50;;
8279;SDS011;8335;42.646;23.380;2022-09-09T10:15:47;8.45;;;5.28;;
8279;SDS011;8335;42.646;23.380;2022-09-09T10:18:33;8.73;;;5.15;;
8279;SDS011;8335;42.646;23.380;2022-09-09T10:21:09;8.63;;;5.65;;
8279;SDS011;8335;42.646;23.380;2022-09-09T10:23:52;12.50;;;5.40;;
8279;SDS011;8335;42.646;23.380;2022-09-09T10:26:35;13.20;;;7.75;;
8279;SDS011;8335;42.646;23.380;2022-09-09T10:29:20;18.13;;;7.82;;
8279;SDS011;8335;42.646;23.380;2022-09-09T10:31:59;15.23;;;6.68;;
8279;SDS011;8335;42.646;23.380;2022-09-09T10:37:26;10.65;;;5.85;;
8279;SDS011;8335;42.646;23.380;2022-09-09T10:40:13;9.43;;;5.78;;
8279;SDS011;8335;42.646;23.380;2022-09-09T10:42:51;14.73;;;7.10;;
8279;SDS011;8335;42.646;23.380;2022-09-09T10:45:26;10.63;;;6.07;;
8279;SDS011;8335;42.646;23.380;2022-09-09T10:48:05;11.90;;;6.55;;
8279;SDS011;8335;42.646;23.380;2022-09-09T10:50:46;9.57;;;6.18;;
8279;SDS011;8335;42.646;23.380;2022-09-09T10:53:24;23.65;;;6.40;;
8279;SDS011;8335;42.646;23.380;2022-09-09T10:56:11;12.75;;;6.38;;
8279;SDS011;8335;42.646;23.380;2022-09-09T10:58:43;14.85;;;5.90;;
8279;SDS011;8335;42.646;23.380;2022-09-09T11:01:18;10.07;;;5.68;;
8279;SDS011;8335;42.646;23.380;2022-09-09T11:03:51;11.10;;;6.65;;
8279;SDS011;8335;42.646;23.380;2022-09-09T11:06:22;8.60;;;6.47;;
8279;SDS011;8335;42.646;23.380;2022-09-09T11:08:55;13.63;;;6.57;;
8279;SDS011;8335;42.646;23.380;2022-09-09T11:11:27;11.60;;;6.57;;
8279;SDS011;8335;42.646;23.380;2022-09-09T11:13:57;11.82;;;6.10;;
8279;SDS011;8335;42.646;23.380;2022-09-09T11:16:30;11.48;;;6.20;;
8279;SDS011;8335;42.646;23.380;2022-09-09T11:19:04;9.30;;;6.40;;
8279;SDS011;8335;42.646;23.380;2022-09-09T11:21:40;11.57;;;6.35;;
8279;SDS011;8335;42.646;23.380;2022-09-09T11:24:11;12.90;;;6.50;;
8279;SDS011;8335;42.646;23.380;2022-09-09T11:26:43;10.38;;;7.15;;
8279;SDS011;8335;42.646;23.380;2022-09-09T11:29:22;13.43;;;7.20;;
8279;SDS011;8335;42.646;23.380;2022-09-09T11:32:12;20.13;;;7.00;;
8279;SDS011;8335;42.646;23.380;2022-09-09T11:34:56;13.82;;;6.40;;
8279;SDS011;8335;42.646;23.380;2022-09-09T11:37:56;15.15;;;7.07;;
8279;SDS011;8335;42.646;23.380;2022-09-09T11:40:33;10.95;;;6.50;;
8279;SDS011;8335;42.646;23.380;2022-09-09T11:43:03;10.40;;;6.72;;
8279;SDS011;8335;42.646;23.380;2022-09-09T11:45:37;13.02;;;7.25;;
8279;SDS011;8335;42.646;23.380;2022-09-09T11:48:22;17.60;;;7.22;;
8279;SDS011;8335;42.646;23.380;2022-09-09T11:50:57;12.35;;;7.00;;
8279;SDS011;8335;42.646;23.380;2022-09-09T11:53:25;8.70;;;7.22;;
8279;SDS011;8335;42.646;23.380;2022-09-09T11:58:54;14.57;;;7.35;;
8279;SDS011;8335;42.646;23.380;2022-09-09T12:01:27;13.32;;;7.80;;
8279;SDS011;8335;42.646;23.380;2022-09-09T12:07:00;12.52;;;7.00;;
8279;SDS011;8335;42.646;23.380;2022-09-09T12:09:30;12.02;;;7.50;;
8279;SDS011;8335;42.646;23.380;2022-09-09T12:12:22;12.25;;;7.80;;
8279;SDS011;8335;42.646;23.380;2022-09-09T12:14:58;11.10;;;7.38;;
8279;SDS011;8335;42.646;23.380;2022-09-09T12:17:27;14.30;;;7.35;;
8279;SDS011;8335;42.646;23.380;2022-09-09T12:20:11;14.55;;;7.45;;
8279;SDS011;8335;42.646;23.380;2022-09-09T12:22:51;12.82;;;6.80;;
8279;SDS011;8335;42.646;23.380;2022-09-09T12:25:30;13.80;;;7.68;;
8279;SDS011;8335;42.646;23.380;2022-09-09T12:28:04;12.48;;;7.40;;
8279;SDS011;8335;42.646;23.380;2022-09-09T12:30:39;11.43;;;7.13;;
8279;SDS011;8335;42.646;23.380;2022-09-09T12:33:13;14.35;;;7.35;;
8279;SDS011;8335;42.646;23.380;2022-09-09T12:35:45;10.43;;;8.20;;
8279;SDS011;8335;42.646;23.380;2022-09-09T12:38:21;11.40;;;7.50;;
8279;SDS011;8335;42.646;23.380;2022-09-09T12:40:55;15.55;;;7.85;;
8279;SDS011;8335;42.646;23.380;2022-09-09T12:43:23;13.45;;;7.45;;
8279;SDS011;8335;42.646;23.380;2022-09-09T12:45:52;15.82;;;7.65;;
8279;SDS011;8335;42.646;23.380;2022-09-09T12:48:24;17.58;;;7.40;;
8279;SDS011;8335;42.646;23.380;2022-09-09T12:50:58;16.02;;;7.70;;
8279;SDS011;8335;42.646;23.380;2022-09-09T12:53:26;16.88;;;7.88;;
8279;SDS011;8335;42.646;23.380;2022-09-09T12:55:56;13.05;;;7.25;;
8279;SDS011;8335;42.646;23.380;2022-09-09T12:58:24;12.85;;;7.60;;
8279;SDS011;8335;42.646;23.380;2022-09-09T13:00:54;12.38;;;7.00;;
8279;SDS011;8335;42.646;23.380;2022-09-09T13:03:22;9.55;;;7.32;;
8279;SDS011;8335;42.646;23.380;2022-09-09T13:05:50;15.77;;;7.70;;
8279;SDS011;8335;42.646;23.380;2022-09-09T13:08:19;13.10;;;7.38;;
8279;SDS011;8335;42.646;23.380;2022-09-09T13:10:47;13.93;;;7.05;;
8279;SDS011;8335;42.646;23.380;2022-09-09T13:13:20;15.00;;;8.10;;
8279;SDS011;8335;42.646;23.380;2022-09-09T13:15:49;11.00;;;6.68;;
8279;SDS011;8335;42.646;23.380;2022-09-09T13:18:19;16.17;;;7.40;;
8279;SDS011;8335;42.646;23.380;2022-09-09T13:20:48;11.95;;;7.32;;
8279;SDS011;8335;42.646;23.380;2022-09-09T13:23:16;12.10;;;7.43;;
8279;SDS011;8335;42.646;23.380;2022-09-09T13:25:52;16.65;;;7.60;;
8279;SDS011;8335;42.646;23.380;2022-09-09T13:28:21;18.90;;;7.68;;
8279;SDS011;8335;42.646;23.380;2022-09-09T13:30:56;16.20;;;7.65;;
8279;SDS011;8335;42.646;23.380;2022-09-09T13:33:29;18.45;;;7.75;;
8279;SDS011;8335;42.646;23.380;2022-09-09T13:35:59;13.98;;;7.90;;
8279;SDS011;8335;42.646;23.380;2022-09-09T13:38:30;14.07;;;7.45;;
8279;SDS011;8335;42.646;23.380;2022-09-09T13:41:00;15.98;;;8.50;;
8279;SDS011;8335;42.646;23.380;2022-09-09T13:43:29;13.07;;;7.65;;
8279;SDS011;8335;42.646;23.380;2022-09-09T13:46:00;17.30;;;7.78;;
8279;SDS011;8335;42.646;23.380;2022-09-09T13:48:29;19.05;;;8.88;;
8279;SDS011;8335;42.646;23.380;2022-09-09T13:50:57;16.77;;;8.82;;
8279;SDS011;8335;42.646;23.380;2022-09-09T13:53:26;17.05;;;7.95;;
8279;SDS011;8335;42.646;23.380;2022-09-09T13:55:55;18.70;;;8.40;;
8279;SDS011;8335;42.646;23.380;2022-09-09T13:58:22;17.65;;;8.07;;
8279;SDS011;8335;42.646;23.380;2022-09-09T14:00:50;15.00;;;8.80;;
8279;SDS011;8335;42.646;23.380;2022-09-09T14:03:18;12.13;;;8.70;;
8279;SDS011;8335;42.646;23.380;2022-09-09T14:05:45;18.60;;;8.25;;
8279;SDS011;8335;42.646;23.380;2022-09-09T14:08:15;19.67;;;8.20;;
8279;SDS011;8335;42.646;23.380;2022-09-09T14:10:47;27.70;;;8.27;;
8279;SDS011;8335;42.646;23.380;2022-09-09T14:13:15;11.02;;;8.05;;
8279;SDS011;8335;42.646;23.380;2022-09-09T14:15:42;16.13;;;8.30;;
8279;SDS011;8335;42.646;23.380;2022-09-09T14:18:09;16.13;;;8.55;;
8279;SDS011;8335;42.646;23.380;2022-09-09T14:20:37;17.58;;;8.20;;
8279;SDS011;8335;42.646;23.380;2022-09-09T14:23:04;17.48;;;8.73;;
8279;SDS011;8335;42.646;23.380;2022-09-09T14:25:31;17.45;;;7.57;;
8279;SDS011;8335;42.646;23.380;2022-09-09T14:27:58;14.63;;;8.15;;
8279;SDS011;8335;42.646;23.380;2022-09-09T14:30:26;11.93;;;8.13;;
8279;SDS011;8335;42.646;23.380;2022-09-09T14:32:53;18.02;;;7.82;;
8279;SDS011;8335;42.646;23.380;2022-09-09T14:35:20;15.20;;;8.52;;
8279;SDS011;8335;42.646;23.380;2022-09-09T14:37:47;21.70;;;7.82;;
8279;SDS011;8335;42.646;23.380;2022-09-09T14:40:14;20.08;;;8.23;;
8279;SDS011;8335;42.646;23.380;2022-09-09T14:42:41;16.40;;;7.63;;
8279;SDS011;8335;42.646;23.380;2022-09-09T14:45:08;14.25;;;7.82;;
8279;SDS011;8335;42.646;23.380;2022-09-09T14:47:37;13.20;;;8.00;;
8279;SDS011;8335;42.646;23.380;2022-09-09T14:50:04;12.93;;;7.82;;
8279;SDS011;8335;42.646;23.380;2022-09-09T14:52:33;17.83;;;7.93;;
8279;SDS011;8335;42.646;23.380;2022-09-09T14:55:00;17.38;;;8.02;;
8279;SDS011;8335;42.646;23.380;2022-09-09T14:57:26;16.33;;;7.82;;
8279;SDS011;8335;42.646;23.380;2022-09-09T14:59:53;20.92;;;9.75;;
8279;SDS011;8335;42.646;23.380;2022-09-09T15:02:20;15.75;;;7.88;;
8279;SDS011;8335;42.646;23.380;2022-09-09T15:04:48;14.57;;;8.02;;
8279;SDS011;8335;42.646;23.380;2022-09-09T15:07:17;14.15;;;8.30;;
8279;SDS011;8335;42.646;23.380;2022-09-09T15:09:44;15.00;;;7.80;;
8279;SDS011;8335;42.646;23.380;2022-09-09T15:12:12;13.55;;;8.07;;
8279;SDS011;8335;42.646;23.380;2022-09-09T15:14:40;15.07;;;8.25;;
8279;SDS011;8335;42.646;23.380;2022-09-09T15:17:07;16.85;;;8.07;;
8279;SDS011;8335;42.646;23.380;2022-09-09T15:19:34;15.70;;;8.60;;
8279;SDS011;8335;42.646;23.380;2022-09-09T15:22:03;12.50;;;8.23;;
8279;SDS011;8335;42.646;23.380;2022-09-09T15:24:32;18.10;;;9.43;;